La Grange, Texas
Current Conditions -  °F | °C
As of 12:35 AM on Saturday 01 Nov 2014 (Local Time) from K3T5 Reporting Station
Clear Clear  
Wind Chill: 55°   Ceiling: Unl
Heat Index: 55°   Visibility: 10mi
Dew Point: 44°   Wind: 3mph
Humidity: 66%   Direction: 20°NNE
Pressure: 30.3"   Gusts: NA
Location:  29.91°N, 96.88°W
Report Text: K3T5 010535Z AUTO 02003KT 10SM CLR 13/06 A3030 RMK AO2 T01270064
Loading
Personal Weather Stations






























Interactive Weather Map
Tropical Storm Tracking
New forecast layout! Learn more

10-Day Weather Forecast

Advertisements
Track Severe Weather on mobile